createdAt,value
2022-12-14T00:02:07.644Z,-2.37
2022-12-14T00:21:08.406Z,-2.64
2022-12-14T00:26:59.428Z,-2.77
2022-12-14T00:32:20.408Z,-2.85
2022-12-14T00:46:32.058Z,-3.01
2022-12-14T01:24:10.989Z,-3.80
2022-12-14T01:55:36.162Z,-4.27
2022-12-14T02:08:12.147Z,-4.44
2022-12-14T02:44:26.637Z,3.28
2022-12-14T03:15:39.315Z,-3.64
2022-12-14T03:28:20.759Z,-4.49
2022-12-14T03:44:11.757Z,2.48
2022-12-14T04:09:40.474Z,-3.54
2022-12-14T04:15:11.057Z,-4.00
2022-12-14T04:40:01.265Z,-3.70
2022-12-14T04:52:28.828Z,-4.45
2022-12-14T04:57:57.252Z,-4.35
2022-12-14T05:04:02.687Z,0.45
2022-12-14T05:10:18.997Z,3.72
2022-12-14T05:24:41.497Z,1.16
2022-12-14T05:36:21.443Z,-1.65
2022-12-14T05:42:53.890Z,-2.52
2022-12-14T05:54:00.678Z,-3.54
2022-12-14T05:59:18.427Z,-3.10
2022-12-14T06:05:10.187Z,-3.35
2022-12-14T06:10:20.593Z,-3.76
2022-12-14T06:15:34.194Z,-4.08
2022-12-14T06:26:15.951Z,-4.45
2022-12-14T06:44:21.398Z,-4.41
2022-12-14T06:50:33.321Z,-4.42
2022-12-14T07:07:38.763Z,-4.38
2022-12-14T07:42:27.352Z,-4.19
2022-12-14T07:47:31.871Z,-4.15
2022-12-14T07:52:38.079Z,-4.07
2022-12-14T07:57:51.591Z,-3.99
2022-12-14T09:04:28.479Z,-3.24
2022-12-14T09:20:20.538Z,-3.00
2022-12-14T09:25:36.024Z,-2.86
2022-12-14T09:30:51.631Z,-2.76
2022-12-14T09:36:03.234Z,-2.66
2022-12-14T09:41:31.148Z,-2.56
2022-12-14T09:47:14.247Z,-2.48
2022-12-14T09:52:49.984Z,-2.42
2022-12-14T09:58:06.548Z,-2.35
2022-12-14T10:03:26.398Z,-2.25
2022-12-14T10:08:47.076Z,-2.15
2022-12-14T10:20:56.354Z,-2.03
2022-12-14T10:28:12.780Z,-1.97
2022-12-14T10:40:12.432Z,-1.85
2022-12-14T10:46:25.050Z,-1.77
2022-12-14T10:58:23.666Z,-1.64
2022-12-14T11:03:30.261Z,-1.59
2022-12-14T11:08:49.008Z,-1.57
2022-12-14T11:14:17.881Z,-1.54
2022-12-14T11:19:23.505Z,-1.50
2022-12-14T11:24:28.935Z,-1.45
2022-12-14T11:29:33.811Z,-1.42
2022-12-14T11:34:55.700Z,-1.36
2022-12-14T11:40:01.846Z,-1.31
2022-12-14T11:45:25.942Z,-1.23
2022-12-14T11:50:34.569Z,-1.13
2022-12-14T11:55:44.240Z,-1.07
2022-12-14T12:06:43.886Z,-1.00
2022-12-14T12:11:47.055Z,-0.93
2022-12-14T12:16:50.291Z,-0.88
2022-12-14T12:21:55.067Z,-0.86
2022-12-14T12:27:13.434Z,-0.82
2022-12-14T12:32:25.036Z,-0.81
2022-12-14T12:37:44.977Z,-0.79
2022-12-14T12:43:21.717Z,-0.76
2022-12-14T12:48:34.276Z,-0.78
2022-12-14T12:53:44.083Z,-0.79
2022-12-14T12:58:53.163Z,-0.80
2022-12-14T13:04:10.447Z,-0.80
2022-12-14T13:09:21.932Z,-0.81
2022-12-14T13:14:29.248Z,-0.84
2022-12-14T13:19:51.340Z,-0.89
2022-12-14T13:25:01.562Z,-0.92
2022-12-14T13:30:12.144Z,-0.95
2022-12-14T13:35:42.416Z,-1.01
2022-12-14T13:40:54.490Z,-1.06
2022-12-14T13:46:07.674Z,-1.08
2022-12-14T13:51:30.176Z,-1.09
2022-12-14T13:56:39.717Z,-1.08
2022-12-14T14:01:57.352Z,-1.07
2022-12-14T14:08:08.062Z,-1.05
2022-12-14T14:13:27.114Z,-1.04
2022-12-14T14:18:34.894Z,-1.02
2022-12-14T14:23:56.354Z,-0.99
2022-12-14T14:29:25.108Z,-0.97
2022-12-14T14:34:43.180Z,-0.94
2022-12-14T14:40:07.181Z,-0.93
2022-12-14T14:45:50.708Z,-0.91
2022-12-14T14:51:18.068Z,-0.91
2022-12-14T14:57:04.705Z,-0.85
2022-12-14T15:02:44.448Z,-0.85
2022-12-14T15:07:59.325Z,-0.83
2022-12-14T15:13:21.810Z,-0.83
2022-12-14T15:18:31.923Z,-0.80
2022-12-14T15:23:39.466Z,-0.78
2022-12-14T15:28:58.434Z,-0.79
2022-12-14T15:34:04.155Z,-0.80
2022-12-14T15:39:30.183Z,-0.80
2022-12-14T15:44:37.702Z,-0.81
2022-12-14T15:49:46.734Z,-0.79
2022-12-14T15:55:24.422Z,-0.77
2022-12-14T16:00:33.339Z,-0.75
2022-12-14T16:07:09.018Z,-0.72
2022-12-14T16:13:06.352Z,-0.69
2022-12-14T16:19:25.947Z,-0.64
2022-12-14T16:24:38.763Z,-0.58
2022-12-14T16:30:17.987Z,-0.53
2022-12-14T16:36:42.073Z,1.44
2022-12-14T16:41:39.143Z,6.37
2022-12-14T16:47:26.844Z,6.63
2022-12-14T16:52:32.364Z,4.60
2022-12-14T16:57:40.763Z,3.60
2022-12-14T17:02:53.257Z,2.92
2022-12-14T17:07:58.159Z,2.40
2022-12-14T17:13:20.759Z,1.98
2022-12-14T17:18:45.453Z,1.62
2022-12-14T17:23:53.451Z,1.40
2022-12-14T17:29:18.188Z,1.28
2022-12-14T17:34:34.916Z,1.22
2022-12-14T17:39:40.375Z,1.15
2022-12-14T17:44:56.288Z,1.10
2022-12-14T17:50:25.515Z,2.43
2022-12-14T17:55:30.732Z,6.85
2022-12-14T18:01:03.569Z,7.26
2022-12-14T18:06:46.198Z,5.32
2022-12-14T18:12:22.020Z,4.41
2022-12-14T18:17:21.887Z,3.67
2022-12-14T18:22:35.316Z,3.12
2022-12-14T18:27:42.748Z,2.66
2022-12-14T18:32:51.327Z,2.28
2022-12-14T18:38:05.907Z,1.97
2022-12-14T18:43:19.594Z,1.77
2022-12-14T18:48:25.208Z,1.62
2022-12-14T18:53:33.390Z,1.51
2022-12-14T18:58:40.615Z,2.77
2022-12-14T19:03:45.252Z,6.77
2022-12-14T19:08:51.743Z,6.04
2022-12-14T19:13:56.179Z,4.60
2022-12-14T19:19:01.164Z,3.82
2022-12-14T19:24:08.928Z,3.26
2022-12-14T19:29:12.893Z,2.78
2022-12-14T19:34:25.005Z,2.41
2022-12-14T19:39:34.637Z,2.16
2022-12-14T19:44:39.024Z,1.99
2022-12-14T19:49:44.057Z,1.82
2022-12-14T19:54:48.702Z,1.67
2022-12-14T19:59:53.038Z,1.57
2022-12-14T20:05:00.460Z,1.49
2022-12-14T20:10:12.784Z,1.45
2022-12-14T20:15:20.120Z,3.10
2022-12-14T20:20:26.590Z,7.40
2022-12-14T20:25:34.460Z,7.64
2022-12-14T20:30:46.920Z,5.81
2022-12-14T20:35:52.181Z,4.75
2022-12-14T20:40:56.502Z,4.03
2022-12-14T20:45:59.973Z,3.43
2022-12-14T20:51:03.636Z,2.95
2022-12-14T20:56:08.907Z,2.59
2022-12-14T21:01:22.144Z,2.30
2022-12-14T21:06:26.308Z,2.07
2022-12-14T21:11:49.006Z,1.98
2022-12-14T21:16:52.766Z,1.89
2022-12-14T21:21:56.636Z,1.78
2022-12-14T21:27:18.112Z,1.69
2022-12-14T21:32:22.314Z,1.67
2022-12-14T21:37:25.969Z,1.65
2022-12-14T21:42:29.113Z,2.99
2022-12-14T21:47:32.334Z,7.14
2022-12-14T21:52:35.564Z,7.72
2022-12-14T21:57:57.449Z,5.90
2022-12-14T22:03:00.807Z,4.82
2022-12-14T22:08:04.779Z,4.14
2022-12-14T22:13:08.073Z,3.66
2022-12-14T22:18:11.281Z,3.26
2022-12-14T22:23:14.426Z,2.90
2022-12-14T22:28:17.511Z,2.59
2022-12-14T22:33:20.754Z,2.35
2022-12-14T22:38:24.938Z,2.16
2022-12-14T22:43:33.881Z,2.01
2022-12-14T22:48:40.415Z,1.89
2022-12-14T22:53:43.819Z,1.80
2022-12-14T22:59:02.052Z,1.72
2022-12-14T23:04:10.582Z,1.66
2022-12-14T23:09:32.279Z,1.62
2022-12-14T23:14:53.930Z,3.23
2022-12-14T23:20:15.926Z,7.46
2022-12-14T23:25:38.026Z,7.47
2022-12-14T23:30:59.729Z,5.65
2022-12-14T23:36:22.004Z,4.65
2022-12-14T23:41:43.824Z,3.90
2022-12-14T23:47:08.280Z,3.32
2022-12-14T23:52:29.797Z,2.88
2022-12-14T23:57:51.330Z,2.56
